Time;durP1;ratioP1;P1;durP2;ratioP2;P2;SDS_P1;SDS_P2;PMS_P1;PMS_P2;Temp;Humidity;BMP_temperature;BMP_pressure;BME280_temperature;BME280_humidity;BME280_pressure;Samples;Min_cycle;Max_cycle;Signal;HPM_P1;HPM_P2
2023/01/29 00:01:52;;;;;;;6.30;4.50;;;2.50;99.90;;;;;;4983481;28;20457;-70
2023/01/29 00:04:18;;;;;;;4.57;3.43;;;2.50;99.90;;;;;;4999461;28;20233;-70
2023/01/29 00:06:44;;;;;;;5.77;3.63;;;2.50;99.90;;;;;;4991091;28;20218;-69
2023/01/29 00:09:10;;;;;;;7.00;4.20;;;2.50;99.90;;;;;;4991623;28;20485;-71
2023/01/29 00:11:36;;;;;;;7.83;4.47;;;2.50;99.90;;;;;;5011131;28;20222;-70
2023/01/29 00:14:02;;;;;;;4.50;3.47;;;2.50;99.90;;;;;;4981655;28;20468;-70
2023/01/29 00:16:28;;;;;;;4.97;3.60;;;2.50;99.90;;;;;;4993520;28;20460;-70
2023/01/29 00:18:54;;;;;;;3.87;2.90;;;2.50;99.90;;;;;;5004717;28;20227;-69
2023/01/29 00:21:21;;;;;;;6.00;2.97;;;2.50;99.90;;;;;;4990384;28;20227;-70
2023/01/29 00:23:47;;;;;;;4.17;3.70;;;2.50;99.90;;;;;;5003888;28;20224;-70
2023/01/29 00:26:13;;;;;;;7.30;4.00;;;2.50;99.90;;;;;;5003970;28;20453;-70
2023/01/29 00:28:43;;;;;;;3.43;3.13;;;2.40;99.90;;;;;;5003656;28;20465;-70
2023/01/29 00:31:10;;;;;;;3.83;2.80;;;2.40;99.90;;;;;;5005888;28;20449;-69
2023/01/29 00:33:36;;;;;;;4.43;3.23;;;2.40;99.90;;;;;;4997424;28;20457;-70
2023/01/29 00:36:07;;;;;;;5.43;3.50;;;2.50;99.90;;;;;;4998489;28;20508;-70
2023/01/29 00:38:34;;;;;;;3.83;3.30;;;2.50;99.90;;;;;;4998582;28;20465;-69
2023/01/29 00:46:35;;;;;;;3.60;2.87;;;2.40;99.90;;;;;;5009500;28;20464;-69
2023/01/29 00:49:02;;;;;;;3.83;3.00;;;2.40;99.90;;;;;;4990618;28;21046;-70
2023/01/29 00:51:29;;;;;;;4.13;3.70;;;2.40;99.90;;;;;;4991665;28;20577;-69
2023/01/29 00:53:57;;;;;;;4.00;3.30;;;2.40;99.90;;;;;;5005886;28;20548;-69
2023/01/29 00:56:27;;;;;;;7.10;4.93;;;2.40;99.90;;;;;;5009282;28;20317;-69
2023/01/29 00:58:53;;;;;;;5.00;3.80;;;2.40;99.90;;;;;;4991895;28;20976;-70
2023/01/29 01:03:04;;;;;;;6.10;4.10;;;2.40;99.90;;;;;;4992579;28;20528;-69
2023/01/29 01:04:05;;;;;;;4.63;3.20;;;2.40;99.90;;;;;;5009173;28;20447;-71
2023/01/29 01:06:31;;;;;;;3.63;2.90;;;2.40;99.90;;;;;;4990599;28;20466;-70
2023/01/29 01:11:41;;;;;;;6.10;3.57;;;2.30;99.90;;;;;;5010192;28;20240;-69
2023/01/29 01:14:07;;;;;;;5.37;3.80;;;2.40;99.90;;;;;;5008796;28;20448;-70
2023/01/29 01:16:33;;;;;;;4.27;3.87;;;2.40;99.90;;;;;;5006218;28;20304;-71
2023/01/29 01:18:58;;;;;;;5.77;3.43;;;2.40;99.90;;;;;;5008040;28;20565;-71
2023/01/29 01:21:24;;;;;;;6.90;4.03;;;2.30;99.90;;;;;;5009210;28;20220;-71
2023/01/29 01:23:51;;;;;;;4.53;3.47;;;2.30;99.90;;;;;;5006850;28;20505;-71
2023/01/29 01:26:20;;;;;;;4.10;3.43;;;2.40;99.90;;;;;;4989705;28;20227;-71
2023/01/29 01:28:46;;;;;;;4.50;3.13;;;2.40;99.90;;;;;;4989511;28;20512;-71
2023/01/29 01:31:13;;;;;;;5.57;3.53;;;2.30;99.90;;;;;;5007736;28;20452;-71
2023/01/29 01:33:39;;;;;;;3.60;3.30;;;2.20;99.90;;;;;;4988861;28;20250;-70
2023/01/29 01:36:09;;;;;;;4.00;2.67;;;2.30;99.90;;;;;;5007214;28;21019;-71
2023/01/29 01:38:43;;;;;;;4.53;3.13;;;2.40;99.90;;;;;;5007663;28;21035;-71
2023/01/29 01:41:19;;;;;;;4.20;3.40;;;2.40;99.90;;;;;;4989199;28;20527;-70
2023/01/29 01:43:57;;;;;;;5.30;3.00;;;2.40;99.90;;;;;;5006692;28;20541;-72
2023/01/29 01:46:27;;;;;;;4.43;3.50;;;2.40;99.90;;;;;;5008852;28;20540;-70
2023/01/29 01:48:58;;;;;;;4.10;2.87;;;2.40;99.90;;;;;;5005418;28;20460;-71
2023/01/29 01:51:25;;;;;;;3.87;2.97;;;2.50;99.90;;;;;;5007540;28;20491;-70
2023/01/29 01:54:00;;;;;;;5.50;3.40;;;2.40;99.90;;;;;;5008600;28;20468;-71
2023/01/29 01:56:37;;;;;;;5.13;3.63;;;2.50;99.90;;;;;;5008607;28;20504;-70
2023/01/29 01:59:06;;;;;;;4.73;3.50;;;2.50;99.90;;;;;;4993093;28;20463;-70
2023/01/29 02:01:32;;;;;;;3.80;2.97;;;2.50;99.90;;;;;;5008450;28;20464;-70
2023/01/29 02:10:14;;;;;;;4.17;3.37;;;2.40;99.90;;;;;;5010974;28;20462;-71
2023/01/29 02:12:40;;;;;;;5.53;3.73;;;2.40;99.90;;;;;;5007679;28;20448;-70
2023/01/29 02:15:07;;;;;;;4.57;3.53;;;2.40;99.90;;;;;;4995970;28;20430;-71
2023/01/29 02:17:32;;;;;;;4.57;4.00;;;2.40;99.90;;;;;;4996195;28;20472;-70
2023/01/29 02:20:04;;;;;;;7.50;3.73;;;2.40;99.90;;;;;;5011109;28;20515;-71
2023/01/29 02:22:55;;;;;;;5.60;3.70;;;2.50;99.90;;;;;;4996024;28;20295;-71
2023/01/29 02:26:00;;;;;;;3.87;3.17;;;2.40;99.90;;;;;;4995525;28;20456;-71
2023/01/29 02:28:28;;;;;;;4.90;3.83;;;2.40;99.90;;;;;;5011023;28;20468;-71
2023/01/29 02:31:12;;;;;;;4.63;4.00;;;2.40;99.90;;;;;;5011926;28;20473;-70
2023/01/29 02:33:48;;;;;;;5.00;2.87;;;2.50;99.90;;;;;;5012418;28;20458;-72
2023/01/29 02:36:28;;;;;;;6.60;3.30;;;2.40;99.90;;;;;;4995380;28;20829;-70
2023/01/29 02:39:05;;;;;;;5.00;3.80;;;2.40;99.90;;;;;;5010623;28;20467;-71
2023/01/29 02:41:49;;;;;;;4.40;3.30;;;2.30;99.90;;;;;;5012434;28;20456;-71
2023/01/29 02:44:21;;;;;;;4.30;3.50;;;2.20;99.90;;;;;;5007779;28;20480;-71
2023/01/29 02:47:03;;;;;;;4.53;3.40;;;2.20;99.90;;;;;;5011518;28;20468;-71
2023/01/29 02:49:36;;;;;;;6.20;3.57;;;2.20;99.90;;;;;;5005941;28;20475;-71
2023/01/29 02:52:13;;;;;;;4.97;3.73;;;2.10;99.90;;;;;;4993652;28;20464;-70
2023/01/29 02:54:42;;;;;;;5.70;4.20;;;2.10;99.90;;;;;;4992780;28;20985;-70
2023/01/29 02:57:27;;;;;;;4.40;3.33;;;2.20;99.90;;;;;;4974924;28;20505;-71
2023/01/29 03:00:03;;;;;;;6.60;3.63;;;2.20;99.90;;;;;;4994447;28;20458;-70
2023/01/29 03:02:42;;;;;;;3.57;3.23;;;2.20;99.90;;;;;;5000358;28;20531;-71
2023/01/29 03:05:16;;;;;;;5.33;3.53;;;2.30;99.90;;;;;;5004200;28;20961;-70
2023/01/29 03:07:50;;;;;;;5.90;3.57;;;2.20;99.90;;;;;;5002540;28;20460;-71
2023/01/29 03:10:39;;;;;;;5.77;4.03;;;2.30;99.90;;;;;;5008681;28;20464;-69
2023/01/29 03:13:32;;;;;;;4.10;3.60;;;2.20;99.90;;;;;;5012154;28;20448;-70
2023/01/29 03:16:06;;;;;;;5.73;3.90;;;2.20;99.90;;;;;;4990001;28;20459;-70
2023/01/29 03:18:45;;;;;;;4.70;3.67;;;2.20;99.90;;;;;;5027007;28;20481;-71
2023/01/29 03:32:50;;;;;;;5.17;3.63;;;2.10;99.90;;;;;;5009267;28;20459;-71
2023/01/29 03:35:32;;;;;;;6.17;4.10;;;2.20;99.90;;;;;;5011335;28;20456;-71
2023/01/29 03:37:58;;;;;;;7.00;3.83;;;2.20;99.90;;;;;;4992492;28;20533;-70
2023/01/29 03:40:25;;;;;;;7.67;4.93;;;2.10;99.90;;;;;;5009531;28;20444;-71
2023/01/29 03:43:11;;;;;;;5.43;4.03;;;2.10;99.90;;;;;;5010119;28;20463;-70
2023/01/29 03:46:00;;;;;;;4.27;3.87;;;2.20;99.90;;;;;;5011188;28;20518;-71
2023/01/29 03:48:42;;;;;;;6.40;4.90;;;2.20;99.90;;;;;;5008473;28;20485;-71
2023/01/29 03:51:37;;;;;;;5.83;4.20;;;2.10;99.90;;;;;;4993122;28;20476;-70
2023/01/29 03:54:17;;;;;;;5.53;3.27;;;2.10;99.90;;;;;;5009331;28;20526;-70
2023/01/29 03:56:43;;;;;;;4.13;3.67;;;2.20;99.90;;;;;;5008938;28;20493;-71
2023/01/29 03:59:27;;;;;;;4.30;3.43;;;2.20;99.90;;;;;;5009964;28;20479;-70
2023/01/29 04:02:28;;;;;;;5.00;3.97;;;2.20;99.90;;;;;;4957784;28;20217;-70
2023/01/29 04:05:07;;;;;;;4.13;3.70;;;2.20;99.90;;;;;;5000864;28;20453;-70
2023/01/29 04:07:40;;;;;;;7.67;3.97;;;2.30;99.90;;;;;;4985725;28;20454;-71
2023/01/29 04:10:15;;;;;;;6.47;4.00;;;2.20;99.90;;;;;;4977989;28;20502;-71
2023/01/29 04:12:56;;;;;;;4.67;3.80;;;2.20;99.90;;;;;;4986265;28;20457;-71
2023/01/29 04:15:25;;;;;;;5.70;3.93;;;2.20;99.90;;;;;;4993947;28;20580;-70
2023/01/29 04:17:52;;;;;;;4.13;3.73;;;2.10;99.90;;;;;;5008876;28;20480;-70
2023/01/29 04:20:34;;;;;;;6.47;4.10;;;2.10;99.90;;;;;;4981229;28;20461;-70
2023/01/29 04:23:00;;;;;;;5.90;4.10;;;2.20;99.90;;;;;;5008480;28;20472;-71
2023/01/29 04:25:45;;;;;;;5.70;4.40;;;2.20;99.90;;;;;;5010413;28;20461;-71
2023/01/29 04:28:17;;;;;;;5.73;3.20;;;2.20;99.90;;;;;;5011056;28;20265;-71
2023/01/29 04:31:05;;;;;;;5.13;4.33;;;2.30;99.90;;;;;;5009665;28;20460;-71
2023/01/29 04:33:43;;;;;;;4.90;3.70;;;2.30;99.90;;;;;;5006997;28;20472;-71
2023/01/29 04:36:40;;;;;;;4.33;3.93;;;2.30;99.90;;;;;;5020290;28;20446;-70
2023/01/29 04:39:12;;;;;;;5.87;4.33;;;2.30;99.90;;;;;;5024302;28;20797;-70
2023/01/29 04:41:47;;;;;;;6.60;4.07;;;2.20;99.90;;;;;;5014283;28;20465;-71
2023/01/29 04:44:28;;;;;;;8.37;4.37;;;2.20;99.90;;;;;;4995175;28;20502;-70
2023/01/29 04:46:57;;;;;;;8.00;4.70;;;2.20;99.90;;;;;;5001160;28;20469;-69
2023/01/29 04:49:46;;;;;;;4.63;4.10;;;2.20;99.90;;;;;;4993646;28;20466;-69
2023/01/29 04:52:20;;;;;;;5.60;4.80;;;2.10;99.90;;;;;;4999817;28;20461;-70
2023/01/29 04:54:55;;;;;;;5.37;3.50;;;2.10;99.90;;;;;;5009406;28;20483;-70
2023/01/29 04:57:45;;;;;;;6.07;4.60;;;2.10;99.90;;;;;;5009068;28;20468;-70
2023/01/29 05:00:19;;;;;;;5.40;4.00;;;2.20;99.90;;;;;;5010956;28;20475;-69
2023/01/29 05:02:46;;;;;;;7.00;4.03;;;2.20;99.90;;;;;;5009004;28;20453;-70
2023/01/29 05:05:14;;;;;;;7.97;4.83;;;2.10;99.90;;;;;;4992773;28;20452;-71
2023/01/29 05:07:41;;;;;;;4.30;3.73;;;2.00;99.90;;;;;;5009011;28;20463;-70
2023/01/29 05:10:11;;;;;;;7.10;4.30;;;1.90;99.90;;;;;;4992615;28;20461;-70
2023/01/29 05:12:38;;;;;;;5.63;3.50;;;2.00;99.90;;;;;;4992592;28;20528;-71
2023/01/29 05:15:10;;;;;;;4.80;3.60;;;2.10;99.90;;;;;;4991771;28;20446;-71
2023/01/29 05:17:36;;;;;;;4.70;3.97;;;2.10;99.90;;;;;;5001307;28;20497;-70
2023/01/29 05:20:02;;;;;;;5.37;3.93;;;2.20;99.90;;;;;;4999766;28;20485;-71
2023/01/29 05:22:29;;;;;;;6.40;4.00;;;2.10;99.90;;;;;;5005670;28;20470;-70
2023/01/29 05:24:55;;;;;;;8.27;4.53;;;2.10;99.90;;;;;;5007365;28;20452;-70
2023/01/29 05:30:12;;;;;;;6.13;4.30;;;2.20;99.90;;;;;;5022682;28;20221;-70
2023/01/29 05:32:38;;;;;;;5.47;4.00;;;2.20;99.90;;;;;;4991742;28;20471;-70
2023/01/29 05:35:05;;;;;;;6.53;4.33;;;2.20;99.90;;;;;;4992208;28;20275;-71
2023/01/29 05:37:31;;;;;;;6.80;4.43;;;2.20;99.90;;;;;;5010286;28;20555;-70
2023/01/29 05:39:56;;;;;;;5.87;4.33;;;2.20;99.90;;;;;;5008567;28;20552;-70
2023/01/29 05:42:22;;;;;;;6.87;4.67;;;2.20;99.90;;;;;;5011409;28;20280;-70
2023/01/29 05:44:48;;;;;;;7.70;4.47;;;2.20;99.90;;;;;;5010486;28;20221;-71
2023/01/29 05:47:18;;;;;;;7.77;5.50;;;2.20;99.90;;;;;;4995830;28;20464;-71
2023/01/29 05:49:44;;;;;;;12.20;6.43;;;2.10;99.90;;;;;;5002550;28;20469;-71
2023/01/29 05:52:09;;;;;;;10.67;5.30;;;2.10;99.90;;;;;;5007644;28;20821;-71
2023/01/29 05:54:35;;;;;;;7.27;5.23;;;2.10;99.90;;;;;;5009298;28;20253;-70
2023/01/29 05:57:01;;;;;;;5.80;3.60;;;2.00;99.90;;;;;;5008997;28;20240;-70
2023/01/29 05:59:26;;;;;;;7.00;4.37;;;2.00;99.90;;;;;;5008215;28;20210;-70
2023/01/29 06:01:52;;;;;;;5.70;3.90;;;2.00;99.90;;;;;;4996575;28;20218;-71
2023/01/29 06:04:18;;;;;;;8.00;4.30;;;2.00;99.90;;;;;;4987546;28;20221;-68
2023/01/29 06:06:43;;;;;;;7.20;3.80;;;2.00;99.90;;;;;;4989629;28;20222;-71
2023/01/29 06:09:10;;;;;;;5.87;3.97;;;2.00;99.90;;;;;;5008285;28;20645;-69
2023/01/29 06:11:36;;;;;;;4.90;3.30;;;2.00;99.90;;;;;;5009411;28;20234;-70
2023/01/29 06:14:02;;;;;;;5.77;3.97;;;2.00;99.90;;;;;;4991989;28;20997;-70
2023/01/29 06:16:27;;;;;;;11.40;4.70;;;1.90;99.90;;;;;;5008854;28;20284;-74
2023/01/29 06:18:53;;;;;;;5.00;3.63;;;1.80;99.90;;;;;;4990251;28;20225;-70
2023/01/29 06:21:19;;;;;;;8.20;4.40;;;1.80;99.90;;;;;;5009722;28;20222;-71
2023/01/29 06:23:44;;;;;;;4.70;4.10;;;1.80;99.90;;;;;;5007794;28;20222;-71
2023/01/29 06:26:12;;;;;;;11.10;3.97;;;1.90;99.90;;;;;;4992025;28;20221;-69
2023/01/29 06:28:38;;;;;;;8.27;4.30;;;1.90;99.90;;;;;;5007732;28;20233;-70
2023/01/29 06:31:05;;;;;;;7.87;3.97;;;1.90;99.90;;;;;;5006815;28;20516;-69
2023/01/29 06:33:31;;;;;;;7.67;4.07;;;1.90;99.90;;;;;;5007958;28;20543;-70
2023/01/29 06:36:03;;;;;;;6.93;4.60;;;1.90;99.90;;;;;;5008386;28;20527;-68
2023/01/29 06:38:28;;;;;;;5.50;3.83;;;2.00;99.90;;;;;;5008031;28;20217;-70
2023/01/29 06:40:54;;;;;;;7.63;4.50;;;2.00;99.90;;;;;;5008361;28;20444;-70
2023/01/29 06:43:21;;;;;;;5.97;3.90;;;2.00;99.90;;;;;;5004922;28;20225;-70
2023/01/29 06:45:54;;;;;;;8.47;4.90;;;2.00;99.90;;;;;;5007892;28;20448;-71
2023/01/29 06:48:21;;;;;;;7.30;4.00;;;1.90;99.90;;;;;;4987230;28;20444;-70
2023/01/29 06:50:48;;;;;;;6.13;4.33;;;1.90;99.90;;;;;;4987560;28;20448;-71
2023/01/29 06:53:14;;;;;;;10.80;5.03;;;1.90;99.90;;;;;;5007087;28;20457;-70
2023/01/29 06:55:41;;;;;;;7.43;3.70;;;1.80;99.90;;;;;;5011920;28;20442;-70
2023/01/29 06:58:08;;;;;;;6.73;4.37;;;1.80;99.90;;;;;;4990162;28;20461;-70
2023/01/29 07:00:35;;;;;;;8.20;4.50;;;1.80;99.90;;;;;;5012095;28;20456;-70
2023/01/29 07:03:01;;;;;;;8.17;4.70;;;1.80;99.90;;;;;;5012485;28;20464;-70
2023/01/29 07:05:27;;;;;;;6.60;4.03;;;1.80;99.90;;;;;;5013305;28;20452;-69
2023/01/29 07:07:53;;;;;;;9.93;6.10;;;1.80;99.90;;;;;;5011019;28;20449;-69
2023/01/29 07:10:19;;;;;;;6.73;4.57;;;1.80;99.90;;;;;;5012613;28;20948;-70
2023/01/29 07:12:45;;;;;;;5.17;3.97;;;1.80;99.90;;;;;;5010303;28;20757;-70
2023/01/29 07:15:18;;;;;;;4.77;3.67;;;1.80;99.90;;;;;;5011565;28;20452;-70
2023/01/29 07:17:54;;;;;;;6.43;3.83;;;1.80;99.90;;;;;;5012581;28;20225;-70
2023/01/29 07:20:20;;;;;;;4.93;4.30;;;1.70;99.90;;;;;;5004664;28;20448;-70
2023/01/29 07:22:45;;;;;;;7.73;4.97;;;1.80;99.90;;;;;;5010851;28;20466;-70
2023/01/29 07:25:11;;;;;;;6.70;4.17;;;1.80;99.90;;;;;;4993706;28;20465;-70
2023/01/29 07:27:36;;;;;;;7.43;4.70;;;1.80;99.90;;;;;;5010854;28;20266;-70
2023/01/29 07:30:02;;;;;;;5.10;4.37;;;1.90;99.90;;;;;;5009744;28;20268;-70
2023/01/29 07:32:28;;;;;;;10.00;4.80;;;1.90;99.90;;;;;;4994697;28;20256;-70
2023/01/29 07:34:53;;;;;;;5.73;3.77;;;1.90;99.90;;;;;;5011508;28;20217;-70
2023/01/29 07:37:19;;;;;;;6.57;4.57;;;1.70;99.90;;;;;;5011888;28;20236;-70
2023/01/29 07:39:46;;;;;;;5.67;3.97;;;1.80;99.90;;;;;;4981054;28;20217;-70
2023/01/29 07:42:12;;;;;;;7.10;4.37;;;1.90;99.90;;;;;;5011072;28;20615;-70
2023/01/29 07:44:37;;;;;;;6.43;4.00;;;1.80;99.90;;;;;;5011189;28;20480;-69
2023/01/29 07:47:03;;;;;;;10.57;4.97;;;1.90;99.90;;;;;;4993011;28;20225;-69
2023/01/29 07:49:29;;;;;;;6.20;4.30;;;1.90;99.90;;;;;;5010608;28;20209;-69
2023/01/29 07:51:55;;;;;;;5.70;3.50;;;1.80;99.90;;;;;;5009912;28;20215;-68
2023/01/29 07:54:20;;;;;;;6.53;4.93;;;1.80;99.90;;;;;;5011458;28;20243;-70
2023/01/29 07:56:46;;;;;;;4.30;3.30;;;1.80;99.90;;;;;;5009200;28;20506;-70
2023/01/29 07:59:11;;;;;;;5.30;4.33;;;1.90;99.90;;;;;;5009081;28;20301;-70
2023/01/29 08:01:37;;;;;;;8.00;4.43;;;1.90;99.90;;;;;;5001984;28;20244;-71
2023/01/29 08:04:03;;;;;;;8.33;4.67;;;2.00;99.90;;;;;;4990474;28;20226;-71
2023/01/29 08:06:29;;;;;;;6.00;4.33;;;2.00;99.90;;;;;;5003340;28;20676;-70
2023/01/29 08:08:56;;;;;;;4.90;4.40;;;2.00;99.90;;;;;;5007927;28;20476;-70
2023/01/29 08:11:22;;;;;;;6.90;4.53;;;1.90;99.90;;;;;;4994019;28;20217;-69
2023/01/29 08:13:48;;;;;;;9.53;4.70;;;1.90;99.90;;;;;;5009337;28;20815;-70
2023/01/29 08:16:14;;;;;;;8.93;4.77;;;2.00;99.90;;;;;;5005651;28;20452;-69
2023/01/29 08:18:42;;;;;;;6.30;4.13;;;1.90;99.90;;;;;;5002137;28;20304;-69
2023/01/29 08:21:08;;;;;;;5.57;4.20;;;1.80;99.90;;;;;;5004935;28;20449;-69
2023/01/29 08:23:34;;;;;;;4.40;3.80;;;1.80;99.90;;;;;;5007936;28;20529;-70
2023/01/29 08:26:02;;;;;;;6.33;4.60;;;1.90;99.90;;;;;;5008775;28;20567;-69
2023/01/29 08:28:28;;;;;;;6.60;4.93;;;1.90;99.90;;;;;;5008879;28;20340;-69
2023/01/29 08:30:53;;;;;;;6.07;3.80;;;1.90;99.90;;;;;;5009848;28;20484;-68
2023/01/29 08:33:20;;;;;;;4.87;3.50;;;1.90;99.90;;;;;;5008120;28;20290;-68
2023/01/29 08:35:51;;;;;;;5.27;3.50;;;1.90;99.90;;;;;;5007925;28;20457;-70
2023/01/29 08:38:17;;;;;;;5.57;3.93;;;1.90;99.90;;;;;;5007292;28;20457;-69
2023/01/29 08:40:43;;;;;;;4.30;2.97;;;1.60;99.90;;;;;;5008544;28;20550;-70
2023/01/29 08:43:10;;;;;;;5.37;4.57;;;1.60;99.90;;;;;;4994717;28;20221;-70
2023/01/29 08:45:40;;;;;;;5.90;4.30;;;1.70;99.90;;;;;;5009771;28;20240;-69
2023/01/29 08:48:07;;;;;;;5.43;3.60;;;1.80;99.90;;;;;;5006680;28;20825;-70
2023/01/29 08:50:33;;;;;;;7.10;4.00;;;1.70;99.90;;;;;;5008479;28;20556;-69
2023/01/29 08:53:02;;;;;;;6.20;3.90;;;1.80;99.90;;;;;;5006601;28;20481;-70
2023/01/29 08:55:29;;;;;;;7.87;4.30;;;1.90;99.90;;;;;;5006594;28;20464;-70
2023/01/29 08:57:57;;;;;;;12.30;5.30;;;1.90;99.90;;;;;;5004438;28;20555;-69
2023/01/29 09:00:23;;;;;;;5.83;4.47;;;1.80;99.90;;;;;;4988823;28;20473;-70
2023/01/29 09:02:49;;;;;;;5.30;4.40;;;1.90;99.90;;;;;;5006597;28;20460;-70
2023/01/29 09:05:15;;;;;;;8.37;4.50;;;1.90;99.90;;;;;;5007749;28;20449;-70
2023/01/29 09:07:41;;;;;;;6.47;4.67;;;1.90;99.90;;;;;;4991194;28;20221;-69
2023/01/29 09:10:08;;;;;;;7.60;4.43;;;1.90;99.90;;;;;;5003469;28;20454;-68
2023/01/29 09:12:34;;;;;;;7.97;4.83;;;1.90;99.90;;;;;;4987505;28;20241;-69
2023/01/29 09:14:59;;;;;;;25.07;14.50;;;1.90;99.90;;;;;;4989990;28;20920;-69
2023/01/29 09:17:25;;;;;;;33.63;17.97;;;1.80;99.90;;;;;;5003039;28;20626;-70
2023/01/29 09:19:51;;;;;;;17.93;8.67;;;1.90;99.90;;;;;;5003196;28;20313;-70
2023/01/29 09:22:18;;;;;;;25.20;11.50;;;1.90;99.90;;;;;;5009025;28;20743;-70
2023/01/29 09:24:44;;;;;;;11.03;6.60;;;1.90;99.90;;;;;;4990835;28;20976;-70
2023/01/29 09:27:10;;;;;;;9.50;6.00;;;1.90;99.90;;;;;;5000074;28;20487;-69
2023/01/29 09:29:36;;;;;;;9.47;6.87;;;1.90;99.90;;;;;;5002269;28;20464;-70
2023/01/29 09:32:05;;;;;;;6.67;4.70;;;1.90;99.90;;;;;;4985615;28;20304;-70
2023/01/29 09:34:31;;;;;;;10.33;5.10;;;1.90;99.90;;;;;;4981204;28;20477;-71
2023/01/29 09:36:57;;;;;;;10.37;6.43;;;1.90;99.90;;;;;;4997969;28;20481;-69
2023/01/29 09:39:22;;;;;;;8.20;4.60;;;1.90;99.90;;;;;;4990640;28;20508;-71
2023/01/29 09:42:06;;;;;;;6.70;4.27;;;1.90;99.90;;;;;;4994431;28;20225;-70
2023/01/29 09:44:47;;;;;;;6.87;4.40;;;1.80;99.90;;;;;;5007750;28;20256;-70
2023/01/29 09:47:16;;;;;;;6.47;4.20;;;1.80;99.90;;;;;;5001555;28;20460;-71
2023/01/29 09:49:51;;;;;;;7.07;4.80;;;1.90;99.90;;;;;;5000793;28;20437;-70
2023/01/29 09:52:24;;;;;;;9.60;5.73;;;1.80;99.90;;;;;;5005611;28;20467;-69
2023/01/29 09:54:54;;;;;;;4.80;4.30;;;1.80;99.90;;;;;;4997114;28;20456;-71
2023/01/29 09:57:55;;;;;;;8.07;4.50;;;1.80;99.90;;;;;;5004128;28;20508;-71
2023/01/29 10:00:39;;;;;;;7.40;4.63;;;1.80;99.90;;;;;;4968716;28;20467;-71
2023/01/29 10:03:38;;;;;;;8.40;4.30;;;1.90;99.90;;;;;;4986189;28;20469;-71
2023/01/29 10:06:22;;;;;;;7.20;4.07;;;1.80;99.90;;;;;;5003634;28;20473;-70
2023/01/29 10:08:51;;;;;;;6.00;4.53;;;1.70;99.90;;;;;;5001712;28;20511;-70
2023/01/29 10:11:38;;;;;;;7.00;4.50;;;1.70;99.90;;;;;;5005505;28;20458;-70
2023/01/29 10:14:17;;;;;;;5.67;4.57;;;1.80;99.90;;;;;;5004387;28;20596;-70
2023/01/29 10:17:05;;;;;;;5.87;4.20;;;1.70;99.90;;;;;;5005453;28;20973;-70
2023/01/29 10:19:49;;;;;;;6.60;4.40;;;1.70;99.90;;;;;;4998626;28;20558;-70
2023/01/29 10:22:44;;;;;;;7.50;4.20;;;1.80;99.90;;;;;;5002067;28;20448;-70
2023/01/29 10:25:16;;;;;;;5.93;4.00;;;1.80;99.90;;;;;;4990977;28;20479;-70
2023/01/29 10:27:49;;;;;;;6.20;4.67;;;1.90;99.90;;;;;;4995152;28;20906;-70
2023/01/29 10:30:21;;;;;;;5.80;4.30;;;1.80;99.90;;;;;;5008148;28;20459;-70
2023/01/29 10:32:48;;;;;;;6.80;4.03;;;1.70;99.90;;;;;;5007328;28;20504;-71
2023/01/29 10:35:29;;;;;;;9.90;5.37;;;1.80;99.90;;;;;;5010619;28;20443;-70
2023/01/29 10:37:58;;;;;;;6.63;4.63;;;1.80;99.90;;;;;;5008584;28;20568;-70
2023/01/29 10:40:27;;;;;;;7.63;5.43;;;1.90;99.90;;;;;;5011153;28;20499;-71
2023/01/29 10:42:59;;;;;;;6.60;3.83;;;1.90;99.90;;;;;;5005808;28;20493;-70
2023/01/29 10:45:41;;;;;;;7.90;5.07;;;1.90;99.90;;;;;;5004762;28;20460;-70
2023/01/29 10:48:32;;;;;;;5.03;4.13;;;1.90;99.90;;;;;;5001192;28;20474;-69
2023/01/29 10:51:10;;;;;;;7.70;4.70;;;1.90;99.90;;;;;;5007865;28;20471;-71
2023/01/29 10:53:47;;;;;;;8.10;5.33;;;2.00;99.90;;;;;;5006589;28;20476;-70
2023/01/29 10:56:47;;;;;;;8.17;5.60;;;1.90;99.90;;;;;;5007698;28;20455;-71
2023/01/29 10:59:28;;;;;;;6.30;5.57;;;1.90;99.90;;;;;;4994253;28;20449;-70
2023/01/29 11:01:58;;;;;;;9.57;6.37;;;1.80;99.90;;;;;;5000989;28;20472;-69
2023/01/29 11:04:27;;;;;;;6.93;5.30;;;1.70;99.90;;;;;;5004903;28;20468;-70
2023/01/29 11:06:53;;;;;;;5.77;5.00;;;1.70;99.90;;;;;;4988412;28;20460;-69
2023/01/29 11:09:21;;;;;;;7.57;5.03;;;1.80;99.90;;;;;;4989255;28;20449;-70
2023/01/29 11:11:53;;;;;;;9.70;5.63;;;1.80;99.90;;;;;;5008334;28;20476;-70
2023/01/29 11:14:27;;;;;;;8.80;4.90;;;1.90;99.90;;;;;;5009471;28;20502;-69
2023/01/29 11:16:53;;;;;;;7.97;5.10;;;2.00;99.90;;;;;;5008184;28;20464;-71
2023/01/29 11:19:38;;;;;;;5.30;4.20;;;2.00;99.90;;;;;;5006137;28;21010;-70
2023/01/29 11:22:10;;;;;;;5.47;4.20;;;2.10;99.90;;;;;;5008834;28;20455;-69
2023/01/29 11:24:36;;;;;;;7.10;4.60;;;2.10;99.90;;;;;;5010173;28;20551;-70
2023/01/29 11:27:14;;;;;;;7.27;4.60;;;2.10;99.90;;;;;;5006357;28;20575;-71
2023/01/29 11:29:43;;;;;;;4.67;4.13;;;2.10;99.90;;;;;;5009753;28;20221;-70
2023/01/29 11:32:21;;;;;;;6.60;4.57;;;2.10;99.90;;;;;;5010092;28;20433;-70
2023/01/29 11:35:19;;;;;;;8.57;5.17;;;2.00;99.90;;;;;;4993066;28;20460;-70
2023/01/29 11:37:45;;;;;;;5.40;4.27;;;2.00;99.90;;;;;;5007400;28;20481;-70
2023/01/29 11:40:34;;;;;;;7.53;4.77;;;2.00;99.90;;;;;;4999148;28;20475;-69
2023/01/29 11:43:19;;;;;;;9.53;4.10;;;2.00;99.90;;;;;;4977359;28;20501;-69
2023/01/29 11:45:46;;;;;;;7.33;5.93;;;2.00;99.90;;;;;;4989362;28;20976;-71
2023/01/29 11:48:20;;;;;;;8.67;5.07;;;2.00;99.90;;;;;;5014212;28;20456;-69
2023/01/29 11:50:59;;;;;;;7.40;4.60;;;2.20;99.90;;;;;;5009119;28;20484;-70
2023/01/29 11:53:48;;;;;;;7.10;4.93;;;2.10;99.90;;;;;;4992976;28;20464;-70
2023/01/29 11:56:30;;;;;;;7.33;5.00;;;2.20;99.90;;;;;;5004003;28;20467;-69
2023/01/29 11:58:56;;;;;;;12.60;5.80;;;2.20;99.90;;;;;;5008344;28;20457;-69
2023/01/29 12:01:36;;;;;;;10.67;6.67;;;2.10;99.90;;;;;;5005939;28;20448;-69
2023/01/29 12:04:03;;;;;;;6.90;4.43;;;2.10;99.90;;;;;;5009205;28;20466;-70
2023/01/29 12:06:41;;;;;;;5.70;4.47;;;2.20;99.90;;;;;;5006848;28;20524;-69
2023/01/29 12:09:14;;;;;;;7.17;5.10;;;2.20;99.90;;;;;;5006036;28;20483;-69
2023/01/29 12:11:40;;;;;;;8.67;5.97;;;2.20;99.90;;;;;;5008372;28;20876;-70
2023/01/29 12:14:35;;;;;;;13.30;5.93;;;2.30;99.90;;;;;;5027448;28;20566;-69
2023/01/29 12:17:05;;;;;;;9.50;5.70;;;2.30;99.90;;;;;;5005932;28;20364;-68
2023/01/29 12:19:47;;;;;;;6.80;4.47;;;2.30;99.90;;;;;;5009906;28;20460;-69
2023/01/29 12:22:33;;;;;;;10.00;5.77;;;2.20;99.90;;;;;;5008802;28;20461;-69
2023/01/29 12:25:19;;;;;;;9.00;4.87;;;2.20;99.90;;;;;;4990872;28;20551;-68
2023/01/29 12:27:45;;;;;;;12.87;5.57;;;2.10;99.90;;;;;;5007966;28;20478;-72
2023/01/29 12:30:39;;;;;;;8.23;5.10;;;2.20;99.90;;;;;;5008606;28;20536;-70
2023/01/29 12:33:22;;;;;;;6.20;4.33;;;2.30;99.90;;;;;;5004471;28;20275;-70
2023/01/29 12:35:54;;;;;;;7.17;4.17;;;2.50;99.90;;;;;;5008319;28;20830;-70
2023/01/29 12:38:22;;;;;;;7.93;5.17;;;2.60;99.90;;;;;;5008162;28;20532;-69
2023/01/29 12:41:22;;;;;;;6.13;3.53;;;2.60;99.90;;;;;;5005781;28;20509;-69
2023/01/29 12:43:56;;;;;;;6.10;4.43;;;2.70;99.90;;;;;;4964462;28;21016;-69
2023/01/29 12:46:32;;;;;;;6.17;4.30;;;2.60;99.90;;;;;;5021698;28;20515;-70
2023/01/29 12:49:03;;;;;;;6.30;4.43;;;2.70;99.90;;;;;;5007347;28;20488;-70
2023/01/29 12:51:35;;;;;;;9.40;5.30;;;2.80;99.90;;;;;;5007223;28;20464;-70
2023/01/29 12:54:07;;;;;;;8.33;5.30;;;2.70;99.90;;;;;;5008243;28;20468;-69
2023/01/29 12:56:46;;;;;;;6.90;5.10;;;2.70;99.90;;;;;;5009115;28;20503;-69
2023/01/29 12:59:23;;;;;;;6.73;5.03;;;2.90;99.90;;;;;;5004203;28;20453;-70
2023/01/29 13:01:53;;;;;;;6.73;3.87;;;3.00;99.90;;;;;;5008181;28;20463;-70
2023/01/29 13:04:28;;;;;;;8.63;4.93;;;3.00;99.90;;;;;;4991675;28;20448;-69
2023/01/29 13:07:12;;;;;;;7.13;4.70;;;3.10;99.90;;;;;;4991798;28;20518;-69
2023/01/29 13:09:44;;;;;;;6.20;4.47;;;3.20;99.90;;;;;;5002201;28;20599;-70
2023/01/29 13:12:16;;;;;;;4.70;4.13;;;3.30;99.90;;;;;;5006109;28;21008;-69
2023/01/29 13:14:52;;;;;;;6.37;3.80;;;3.50;99.90;;;;;;5009064;28;20469;-70
2023/01/29 13:17:41;;;;;;;9.30;4.80;;;3.50;99.90;;;;;;4983119;28;20466;-71
2023/01/29 13:20:21;;;;;;;10.60;5.70;;;3.40;99.90;;;;;;5000168;28;20987;-69
2023/01/29 13:22:50;;;;;;;6.03;5.37;;;3.40;99.90;;;;;;4987575;28;20486;-71
2023/01/29 13:25:18;;;;;;;6.37;4.57;;;3.40;99.90;;;;;;5008367;28;20477;-70
2023/01/29 13:27:46;;;;;;;7.47;5.70;;;3.50;99.90;;;;;;5004908;28;20559;-70
2023/01/29 13:30:27;;;;;;;6.60;4.70;;;3.50;99.90;;;;;;5004858;28;20465;-72
2023/01/29 13:32:55;;;;;;;6.50;4.80;;;3.60;99.90;;;;;;4985892;28;20464;-72
2023/01/29 13:35:22;;;;;;;9.03;4.93;;;3.70;99.90;;;;;;5010195;28;20532;-71
2023/01/29 13:37:52;;;;;;;8.43;4.77;;;3.70;99.90;;;;;;5007251;28;20488;-72
2023/01/29 13:40:23;;;;;;;6.47;4.90;;;3.70;99.90;;;;;;5006789;28;20501;-71
2023/01/29 13:42:51;;;;;;;7.60;5.17;;;3.80;99.90;;;;;;5010188;28;20481;-71
2023/01/29 13:45:43;;;;;;;6.23;4.23;;;3.90;99.90;;;;;;5009513;28;20507;-71
2023/01/29 13:48:18;;;;;;;8.17;4.30;;;4.00;99.90;;;;;;4999701;28;20922;-71
2023/01/29 13:50:45;;;;;;;8.57;4.23;;;4.00;99.90;;;;;;5022230;28;20492;-70